sensor_id;sensor_type;location;lat;lon;timestamp;P1;durP1;ratioP1;P2;durP2;ratioP2
9424;SDS011;17139;52.140;11.636;2023-08-31T00:00:22;1.70;;;1.70;;
9424;SDS011;17139;52.140;11.636;2023-08-31T00:02:50;1.65;;;1.65;;
9424;SDS011;17139;52.140;11.636;2023-08-31T00:05:17;1.60;;;1.60;;
9424;SDS011;17139;52.140;11.636;2023-08-31T00:07:44;1.67;;;1.60;;
9424;SDS011;17139;52.140;11.636;2023-08-31T00:10:11;1.65;;;1.65;;
9424;SDS011;17139;52.140;11.636;2023-08-31T00:12:38;1.50;;;1.50;;
9424;SDS011;17139;52.140;11.636;2023-08-31T00:15:07;1.63;;;1.63;;
9424;SDS011;17139;52.140;11.636;2023-08-31T00:17:35;1.95;;;1.88;;
9424;SDS011;17139;52.140;11.636;2023-08-31T00:20:03;2.50;;;2.30;;
9424;SDS011;17139;52.140;11.636;2023-08-31T00:22:32;1.85;;;1.85;;
9424;SDS011;17139;52.140;11.636;2023-08-31T00:24:59;2.10;;;2.00;;
9424;SDS011;17139;52.140;11.636;2023-08-31T00:27:26;1.73;;;1.73;;
9424;SDS011;17139;52.140;11.636;2023-08-31T00:29:55;2.05;;;1.95;;
9424;SDS011;17139;52.140;11.636;2023-08-31T00:32:24;2.50;;;1.67;;
9424;SDS011;17139;52.140;11.636;2023-08-31T00:34:51;1.85;;;1.85;;
9424;SDS011;17139;52.140;11.636;2023-08-31T00:37:18;2.30;;;1.90;;
9424;SDS011;17139;52.140;11.636;2023-08-31T00:39:46;5.05;;;2.10;;
9424;SDS011;17139;52.140;11.636;2023-08-31T00:42:16;1.80;;;1.70;;
9424;SDS011;17139;52.140;11.636;2023-08-31T00:44:44;2.20;;;2.10;;
9424;SDS011;17139;52.140;11.636;2023-08-31T00:47:12;2.80;;;2.60;;
9424;SDS011;17139;52.140;11.636;2023-08-31T00:49:41;2.15;;;2.05;;
9424;SDS011;17139;52.140;11.636;2023-08-31T00:52:08;2.55;;;2.35;;
9424;SDS011;17139;52.140;11.636;2023-08-31T00:54:36;2.63;;;2.53;;
9424;SDS011;17139;52.140;11.636;2023-08-31T00:57:03;2.33;;;2.22;;
9424;SDS011;17139;52.140;11.636;2023-08-31T00:59:30;2.20;;;2.20;;
9424;SDS011;17139;52.140;11.636;2023-08-31T01:01:59;2.10;;;2.00;;
9424;SDS011;17139;52.140;11.636;2023-08-31T01:04:33;2.25;;;2.20;;
9424;SDS011;17139;52.140;11.636;2023-08-31T01:07:11;2.35;;;2.25;;
9424;SDS011;17139;52.140;11.636;2023-08-31T01:09:48;2.40;;;2.30;;
9424;SDS011;17139;52.140;11.636;2023-08-31T01:12:22;2.13;;;2.10;;
9424;SDS011;17139;52.140;11.636;2023-08-31T01:14:59;3.08;;;2.97;;
9424;SDS011;17139;52.140;11.636;2023-08-31T01:17:32;2.35;;;2.25;;
9424;SDS011;17139;52.140;11.636;2023-08-31T01:20:04;3.00;;;2.78;;
9424;SDS011;17139;52.140;11.636;2023-08-31T01:22:37;2.83;;;2.13;;
9424;SDS011;17139;52.140;11.636;2023-08-31T01:25:08;1.98;;;1.92;;
9424;SDS011;17139;52.140;11.636;2023-08-31T01:27:36;2.20;;;2.20;;
9424;SDS011;17139;52.140;11.636;2023-08-31T01:30:05;1.77;;;1.77;;
9424;SDS011;17139;52.140;11.636;2023-08-31T01:32:33;1.83;;;1.83;;
9424;SDS011;17139;52.140;11.636;2023-08-31T01:35:01;2.30;;;2.20;;
9424;SDS011;17139;52.140;11.636;2023-08-31T01:37:34;1.70;;;1.70;;
9424;SDS011;17139;52.140;11.636;2023-08-31T01:40:10;1.63;;;1.63;;
9424;SDS011;17139;52.140;11.636;2023-08-31T01:42:41;2.58;;;2.47;;
9424;SDS011;17139;52.140;11.636;2023-08-31T01:45:09;2.50;;;2.40;;
9424;SDS011;17139;52.140;11.636;2023-08-31T01:47:40;2.38;;;2.28;;
9424;SDS011;17139;52.140;11.636;2023-08-31T01:50:08;2.28;;;2.25;;
9424;SDS011;17139;52.140;11.636;2023-08-31T01:52:35;2.20;;;2.10;;
9424;SDS011;17139;52.140;11.636;2023-08-31T01:55:02;2.15;;;1.92;;
9424;SDS011;17139;52.140;11.636;2023-08-31T01:57:32;2.20;;;2.13;;
9424;SDS011;17139;52.140;11.636;2023-08-31T01:59:59;1.98;;;1.98;;
9424;SDS011;17139;52.140;11.636;2023-08-31T02:02:26;2.25;;;2.08;;
9424;SDS011;17139;52.140;11.636;2023-08-31T02:04:53;2.10;;;2.00;;
9424;SDS011;17139;52.140;11.636;2023-08-31T02:07:20;2.45;;;2.30;;
9424;SDS011;17139;52.140;11.636;2023-08-31T02:09:47;2.72;;;2.53;;
9424;SDS011;17139;52.140;11.636;2023-08-31T02:12:14;2.35;;;2.25;;
9424;SDS011;17139;52.140;11.636;2023-08-31T02:14:42;2.53;;;2.30;;
9424;SDS011;17139;52.140;11.636;2023-08-31T02:17:09;2.13;;;2.05;;
9424;SDS011;17139;52.140;11.636;2023-08-31T02:19:36;2.65;;;2.55;;
9424;SDS011;17139;52.140;11.636;2023-08-31T02:22:03;2.85;;;2.75;;
9424;SDS011;17139;52.140;11.636;2023-08-31T02:24:30;2.45;;;2.35;;
9424;SDS011;17139;52.140;11.636;2023-08-31T02:26:57;3.20;;;3.10;;
9424;SDS011;17139;52.140;11.636;2023-08-31T02:29:24;2.70;;;2.50;;
9424;SDS011;17139;52.140;11.636;2023-08-31T02:31:53;4.50;;;3.00;;
9424;SDS011;17139;52.140;11.636;2023-08-31T02:34:20;3.00;;;2.78;;
9424;SDS011;17139;52.140;11.636;2023-08-31T02:36:47;3.92;;;3.03;;
9424;SDS011;17139;52.140;11.636;2023-08-31T02:39:14;2.88;;;2.67;;
9424;SDS011;17139;52.140;11.636;2023-08-31T02:41:41;2.88;;;2.78;;
9424;SDS011;17139;52.140;11.636;2023-08-31T02:44:08;4.47;;;4.18;;
9424;SDS011;17139;52.140;11.636;2023-08-31T02:46:36;3.72;;;3.63;;
9424;SDS011;17139;52.140;11.636;2023-08-31T02:49:05;3.58;;;3.38;;
9424;SDS011;17139;52.140;11.636;2023-08-31T02:51:32;3.67;;;3.40;;
9424;SDS011;17139;52.140;11.636;2023-08-31T02:53:59;3.88;;;3.67;;
9424;SDS011;17139;52.140;11.636;2023-08-31T02:56:26;3.85;;;3.60;;
9424;SDS011;17139;52.140;11.636;2023-08-31T02:58:53;4.22;;;4.03;;
9424;SDS011;17139;52.140;11.636;2023-08-31T03:01:20;3.63;;;3.53;;
9424;SDS011;17139;52.140;11.636;2023-08-31T03:03:48;4.10;;;3.90;;
9424;SDS011;17139;52.140;11.636;2023-08-31T03:06:16;3.83;;;3.53;;
9424;SDS011;17139;52.140;11.636;2023-08-31T03:08:43;3.85;;;3.70;;
9424;SDS011;17139;52.140;11.636;2023-08-31T03:11:11;5.38;;;4.88;;
9424;SDS011;17139;52.140;11.636;2023-08-31T03:13:39;4.18;;;4.07;;
9424;SDS011;17139;52.140;11.636;2023-08-31T03:16:07;3.97;;;3.78;;
9424;SDS011;17139;52.140;11.636;2023-08-31T03:18:34;6.97;;;4.13;;
9424;SDS011;17139;52.140;11.636;2023-08-31T03:21:01;4.22;;;3.90;;
9424;SDS011;17139;52.140;11.636;2023-08-31T03:23:29;4.60;;;3.80;;
9424;SDS011;17139;52.140;11.636;2023-08-31T03:25:56;4.43;;;4.22;;
9424;SDS011;17139;52.140;11.636;2023-08-31T03:28:23;4.60;;;4.40;;
9424;SDS011;17139;52.140;11.636;2023-08-31T03:30:54;4.85;;;4.55;;
9424;SDS011;17139;52.140;11.636;2023-08-31T03:33:21;4.60;;;4.40;;
9424;SDS011;17139;52.140;11.636;2023-08-31T03:35:48;4.82;;;4.05;;
9424;SDS011;17139;52.140;11.636;2023-08-31T03:38:15;4.78;;;4.50;;
9424;SDS011;17139;52.140;11.636;2023-08-31T03:40:43;4.47;;;4.28;;
9424;SDS011;17139;52.140;11.636;2023-08-31T03:43:19;4.40;;;4.15;;
9424;SDS011;17139;52.140;11.636;2023-08-31T03:45:46;4.43;;;4.13;;
9424;SDS011;17139;52.140;11.636;2023-08-31T03:48:13;3.90;;;3.80;;
9424;SDS011;17139;52.140;11.636;2023-08-31T03:50:40;4.32;;;3.92;;
9424;SDS011;17139;52.140;11.636;2023-08-31T03:53:07;4.30;;;4.00;;
9424;SDS011;17139;52.140;11.636;2023-08-31T03:55:35;4.95;;;4.70;;
9424;SDS011;17139;52.140;11.636;2023-08-31T03:58:04;5.28;;;4.80;;
9424;SDS011;17139;52.140;11.636;2023-08-31T04:00:31;4.22;;;3.83;;
9424;SDS011;17139;52.140;11.636;2023-08-31T04:02:58;4.60;;;4.20;;
9424;SDS011;17139;52.140;11.636;2023-08-31T04:05:25;4.68;;;4.38;;
9424;SDS011;17139;52.140;11.636;2023-08-31T04:07:52;4.25;;;3.95;;
9424;SDS011;17139;52.140;11.636;2023-08-31T04:10:19;4.57;;;3.97;;
9424;SDS011;17139;52.140;11.636;2023-08-31T04:12:46;4.35;;;4.13;;
9424;SDS011;17139;52.140;11.636;2023-08-31T04:15:14;4.68;;;3.97;;
9424;SDS011;17139;52.140;11.636;2023-08-31T04:17:41;3.88;;;3.60;;
9424;SDS011;17139;52.140;11.636;2023-08-31T04:20:09;5.10;;;4.70;;
9424;SDS011;17139;52.140;11.636;2023-08-31T04:22:37;4.57;;;4.35;;
9424;SDS011;17139;52.140;11.636;2023-08-31T04:25:04;4.13;;;3.90;;
9424;SDS011;17139;52.140;11.636;2023-08-31T04:27:31;5.18;;;4.88;;
9424;SDS011;17139;52.140;11.636;2023-08-31T04:29:59;5.53;;;4.80;;
9424;SDS011;17139;52.140;11.636;2023-08-31T04:32:28;6.07;;;4.78;;
9424;SDS011;17139;52.140;11.636;2023-08-31T04:34:55;4.95;;;4.60;;
9424;SDS011;17139;52.140;11.636;2023-08-31T04:37:22;4.53;;;4.22;;
9424;SDS011;17139;52.140;11.636;2023-08-31T04:39:49;5.18;;;4.88;;
9424;SDS011;17139;52.140;11.636;2023-08-31T04:42:16;4.90;;;4.60;;
9424;SDS011;17139;52.140;11.636;2023-08-31T04:44:43;4.85;;;4.55;;
9424;SDS011;17139;52.140;11.636;2023-08-31T04:47:11;4.57;;;4.32;;
9424;SDS011;17139;52.140;11.636;2023-08-31T04:49:39;5.20;;;4.80;;
9424;SDS011;17139;52.140;11.636;2023-08-31T04:52:06;5.85;;;5.00;;
9424;SDS011;17139;52.140;11.636;2023-08-31T04:54:33;6.55;;;5.97;;
9424;SDS011;17139;52.140;11.636;2023-08-31T04:57:00;5.20;;;4.65;;
9424;SDS011;17139;52.140;11.636;2023-08-31T04:59:28;6.57;;;6.07;;
9424;SDS011;17139;52.140;11.636;2023-08-31T05:01:55;5.40;;;5.10;;
9424;SDS011;17139;52.140;11.636;2023-08-31T05:04:22;5.65;;;5.25;;
9424;SDS011;17139;52.140;11.636;2023-08-31T05:06:51;5.35;;;4.90;;
9424;SDS011;17139;52.140;11.636;2023-08-31T05:09:18;5.07;;;4.68;;
9424;SDS011;17139;52.140;11.636;2023-08-31T05:11:45;5.15;;;4.85;;
9424;SDS011;17139;52.140;11.636;2023-08-31T05:14:12;5.60;;;5.20;;
9424;SDS011;17139;52.140;11.636;2023-08-31T05:16:39;5.50;;;5.10;;
9424;SDS011;17139;52.140;11.636;2023-08-31T05:19:06;7.45;;;5.03;;
9424;SDS011;17139;52.140;11.636;2023-08-31T05:21:33;12.30;;;5.50;;
9424;SDS011;17139;52.140;11.636;2023-08-31T05:24:01;5.82;;;5.38;;
9424;SDS011;17139;52.140;11.636;2023-08-31T05:26:28;5.65;;;5.15;;
9424;SDS011;17139;52.140;11.636;2023-08-31T05:28:55;15.40;;;6.97;;
9424;SDS011;17139;52.140;11.636;2023-08-31T05:31:22;8.82;;;5.32;;
9424;SDS011;17139;52.140;11.636;2023-08-31T05:33:49;10.15;;;5.85;;
9424;SDS011;17139;52.140;11.636;2023-08-31T05:36:17;26.55;;;7.90;;
9424;SDS011;17139;52.140;11.636;2023-08-31T05:38:44;33.00;;;8.73;;
9424;SDS011;17139;52.140;11.636;2023-08-31T05:41:13;29.02;;;7.82;;
9424;SDS011;17139;52.140;11.636;2023-08-31T05:43:40;12.85;;;6.28;;
9424;SDS011;17139;52.140;11.636;2023-08-31T05:46:07;9.63;;;5.63;;
9424;SDS011;17139;52.140;11.636;2023-08-31T05:48:34;4.68;;;3.70;;
9424;SDS011;17139;52.140;11.636;2023-08-31T05:51:01;5.40;;;4.90;;
9424;SDS011;17139;52.140;11.636;2023-08-31T05:53:29;5.65;;;4.25;;
9424;SDS011;17139;52.140;11.636;2023-08-31T05:55:56;8.27;;;4.18;;
9424;SDS011;17139;52.140;11.636;2023-08-31T05:58:30;4.45;;;4.07;;
9424;SDS011;17139;52.140;11.636;2023-08-31T06:00:58;4.30;;;4.10;;
9424;SDS011;17139;52.140;11.636;2023-08-31T06:03:25;4.25;;;4.00;;
9424;SDS011;17139;52.140;11.636;2023-08-31T06:05:52;4.30;;;4.00;;
9424;SDS011;17139;52.140;11.636;2023-08-31T06:08:19;6.03;;;4.18;;
9424;SDS011;17139;52.140;11.636;2023-08-31T06:10:46;5.45;;;4.30;;
9424;SDS011;17139;52.140;11.636;2023-08-31T06:13:13;8.40;;;4.15;;
9424;SDS011;17139;52.140;11.636;2023-08-31T06:15:42;5.03;;;4.45;;
9424;SDS011;17139;52.140;11.636;2023-08-31T06:18:10;9.48;;;5.60;;
9424;SDS011;17139;52.140;11.636;2023-08-31T06:20:37;6.18;;;5.68;;
9424;SDS011;17139;52.140;11.636;2023-08-31T06:23:04;6.38;;;4.82;;
9424;SDS011;17139;52.140;11.636;2023-08-31T06:25:31;4.65;;;4.25;;
9424;SDS011;17139;52.140;11.636;2023-08-31T06:27:58;4.07;;;3.80;;
9424;SDS011;17139;52.140;11.636;2023-08-31T06:30:25;4.57;;;4.18;;
9424;SDS011;17139;52.140;11.636;2023-08-31T06:32:53;4.90;;;4.55;;
9424;SDS011;17139;52.140;11.636;2023-08-31T06:35:20;7.95;;;5.50;;
9424;SDS011;17139;52.140;11.636;2023-08-31T06:37:49;3.95;;;3.75;;
9424;SDS011;17139;52.140;11.636;2023-08-31T06:40:16;5.10;;;3.78;;
9424;SDS011;17139;52.140;11.636;2023-08-31T06:42:43;7.28;;;4.78;;
9424;SDS011;17139;52.140;11.636;2023-08-31T06:45:10;9.07;;;4.43;;
9424;SDS011;17139;52.140;11.636;2023-08-31T06:47:37;11.43;;;4.55;;
9424;SDS011;17139;52.140;11.636;2023-08-31T06:50:06;6.95;;;3.53;;
9424;SDS011;17139;52.140;11.636;2023-08-31T06:52:33;5.25;;;3.15;;
9424;SDS011;17139;52.140;11.636;2023-08-31T06:55:00;5.57;;;3.60;;
9424;SDS011;17139;52.140;11.636;2023-08-31T06:57:28;2.80;;;2.70;;
9424;SDS011;17139;52.140;11.636;2023-08-31T06:59:55;5.03;;;4.05;;
9424;SDS011;17139;52.140;11.636;2023-08-31T07:02:22;4.43;;;3.55;;
9424;SDS011;17139;52.140;11.636;2023-08-31T07:04:52;5.00;;;3.35;;
9424;SDS011;17139;52.140;11.636;2023-08-31T07:07:21;3.70;;;3.00;;
9424;SDS011;17139;52.140;11.636;2023-08-31T07:09:48;2.40;;;2.20;;
9424;SDS011;17139;52.140;11.636;2023-08-31T07:12:15;2.40;;;2.30;;
9424;SDS011;17139;52.140;11.636;2023-08-31T07:14:42;2.60;;;2.40;;
9424;SDS011;17139;52.140;11.636;2023-08-31T07:17:09;3.65;;;2.45;;
9424;SDS011;17139;52.140;11.636;2023-08-31T07:19:36;3.08;;;2.63;;
9424;SDS011;17139;52.140;11.636;2023-08-31T07:22:03;2.65;;;2.53;;
9424;SDS011;17139;52.140;11.636;2023-08-31T07:24:32;3.22;;;2.97;;
9424;SDS011;17139;52.140;11.636;2023-08-31T07:27:01;3.40;;;3.05;;
9424;SDS011;17139;52.140;11.636;2023-08-31T07:29:28;5.43;;;3.00;;
9424;SDS011;17139;52.140;11.636;2023-08-31T07:31:56;4.15;;;3.45;;
9424;SDS011;17139;52.140;11.636;2023-08-31T07:34:23;3.33;;;2.58;;
9424;SDS011;17139;52.140;11.636;2023-08-31T07:36:51;2.50;;;2.30;;
9424;SDS011;17139;52.140;11.636;2023-08-31T07:39:19;4.40;;;2.60;;
9424;SDS011;17139;52.140;11.636;2023-08-31T07:41:47;3.65;;;2.47;;
9424;SDS011;17139;52.140;11.636;2023-08-31T07:44:14;2.80;;;2.67;;
9424;SDS011;17139;52.140;11.636;2023-08-31T07:46:41;4.13;;;2.63;;
9424;SDS011;17139;52.140;11.636;2023-08-31T07:49:08;4.28;;;2.80;;
9424;SDS011;17139;52.140;11.636;2023-08-31T07:51:35;2.78;;;2.58;;
9424;SDS011;17139;52.140;11.636;2023-08-31T07:54:02;3.83;;;2.75;;
9424;SDS011;17139;52.140;11.636;2023-08-31T07:56:29;2.35;;;2.28;;
9424;SDS011;17139;52.140;11.636;2023-08-31T07:58:58;3.00;;;2.60;;
9424;SDS011;17139;52.140;11.636;2023-08-31T08:01:25;2.92;;;2.63;;
9424;SDS011;17139;52.140;11.636;2023-08-31T08:03:52;2.45;;;2.35;;
9424;SDS011;17139;52.140;11.636;2023-08-31T08:06:19;4.15;;;2.38;;
9424;SDS011;17139;52.140;11.636;2023-08-31T08:08:46;4.00;;;2.70;;
9424;SDS011;17139;52.140;11.636;2023-08-31T08:11:14;2.60;;;2.50;;
9424;SDS011;17139;52.140;11.636;2023-08-31T08:13:41;4.28;;;2.72;;
9424;SDS011;17139;52.140;11.636;2023-08-31T08:16:09;2.95;;;2.75;;
9424;SDS011;17139;52.140;11.636;2023-08-31T08:18:36;2.65;;;2.45;;
9424;SDS011;17139;52.140;11.636;2023-08-31T08:21:03;2.90;;;2.70;;
9424;SDS011;17139;52.140;11.636;2023-08-31T08:23:30;3.40;;;3.20;;
9424;SDS011;17139;52.140;11.636;2023-08-31T08:25:57;3.55;;;3.35;;
9424;SDS011;17139;52.140;11.636;2023-08-31T08:28:25;3.22;;;2.63;;
9424;SDS011;17139;52.140;11.636;2023-08-31T08:30:53;2.30;;;2.20;;
9424;SDS011;17139;52.140;11.636;2023-08-31T08:33:21;2.78;;;2.58;;
9424;SDS011;17139;52.140;11.636;2023-08-31T08:35:48;3.70;;;2.30;;
9424;SDS011;17139;52.140;11.636;2023-08-31T08:38:15;2.70;;;2.60;;
9424;SDS011;17139;52.140;11.636;2023-08-31T08:40:42;3.78;;;3.10;;
9424;SDS011;17139;52.140;11.636;2023-08-31T08:43:09;5.85;;;2.88;;
9424;SDS011;17139;52.140;11.636;2023-08-31T08:45:37;2.88;;;2.75;;
9424;SDS011;17139;52.140;11.636;2023-08-31T08:48:06;3.28;;;3.17;;
9424;SDS011;17139;52.140;11.636;2023-08-31T08:50:35;3.45;;;3.25;;
9424;SDS011;17139;52.140;11.636;2023-08-31T08:53:03;2.97;;;2.88;;
9424;SDS011;17139;52.140;11.636;2023-08-31T08:55:31;3.60;;;3.40;;
9424;SDS011;17139;52.140;11.636;2023-08-31T08:57:59;4.15;;;3.03;;
9424;SDS011;17139;52.140;11.636;2023-08-31T09:00:26;3.38;;;2.83;;
9424;SDS011;17139;52.140;11.636;2023-08-31T09:02:53;3.38;;;2.25;;
9424;SDS011;17139;52.140;11.636;2023-08-31T09:05:21;2.40;;;2.30;;
9424;SDS011;17139;52.140;11.636;2023-08-31T09:08:02;1.95;;;1.90;;
9424;SDS011;17139;52.140;11.636;2023-08-31T09:10:35;1.90;;;1.80;;
9424;SDS011;17139;52.140;11.636;2023-08-31T09:13:06;2.90;;;1.52;;
9424;SDS011;17139;52.140;11.636;2023-08-31T09:15:38;1.77;;;1.77;;
9424;SDS011;17139;52.140;11.636;2023-08-31T09:18:07;1.77;;;1.67;;
9424;SDS011;17139;52.140;11.636;2023-08-31T09:20:44;1.60;;;1.50;;
9424;SDS011;17139;52.140;11.636;2023-08-31T09:23:13;2.10;;;2.00;;
9424;SDS011;17139;52.140;11.636;2023-08-31T09:25:42;2.30;;;2.05;;
9424;SDS011;17139;52.140;11.636;2023-08-31T09:28:10;1.60;;;1.58;;
9424;SDS011;17139;52.140;11.636;2023-08-31T09:30:38;1.33;;;1.30;;
9424;SDS011;17139;52.140;11.636;2023-08-31T09:33:06;2.10;;;1.73;;
9424;SDS011;17139;52.140;11.636;2023-08-31T09:35:38;1.42;;;1.33;;
9424;SDS011;17139;52.140;11.636;2023-08-31T09:38:09;1.27;;;1.27;;
9424;SDS011;17139;52.140;11.636;2023-08-31T09:40:38;1.27;;;1.23;;
9424;SDS011;17139;52.140;11.636;2023-08-31T09:43:05;2.28;;;1.20;;
9424;SDS011;17139;52.140;11.636;2023-08-31T09:45:32;1.60;;;1.50;;
9424;SDS011;17139;52.140;11.636;2023-08-31T09:48:01;1.50;;;1.50;;
9424;SDS011;17139;52.140;11.636;2023-08-31T09:50:30;11.93;;;1.58;;
9424;SDS011;17139;52.140;11.636;2023-08-31T09:52:59;1.30;;;1.30;;
9424;SDS011;17139;52.140;11.636;2023-08-31T09:55:29;1.20;;;1.20;;
9424;SDS011;17139;52.140;11.636;2023-08-31T09:58:00;1.33;;;1.27;;
9424;SDS011;17139;52.140;11.636;2023-08-31T10:00:29;6.25;;;1.73;;
9424;SDS011;17139;52.140;11.636;2023-08-31T10:03:00;1.00;;;1.00;;
9424;SDS011;17139;52.140;11.636;2023-08-31T10:05:28;1.50;;;1.50;;
9424;SDS011;17139;52.140;11.636;2023-08-31T10:07:56;2.30;;;1.30;;
9424;SDS011;17139;52.140;11.636;2023-08-31T10:10:24;1.48;;;1.38;;
9424;SDS011;17139;52.140;11.636;2023-08-31T10:12:52;1.17;;;1.10;;
9424;SDS011;17139;52.140;11.636;2023-08-31T10:15:21;1.20;;;1.20;;
9424;SDS011;17139;52.140;11.636;2023-08-31T10:17:49;1.40;;;1.30;;
9424;SDS011;17139;52.140;11.636;2023-08-31T10:20:16;1.25;;;1.15;;
9424;SDS011;17139;52.140;11.636;2023-08-31T10:22:44;0.95;;;0.95;;
9424;SDS011;17139;52.140;11.636;2023-08-31T10:25:11;1.00;;;1.00;;
9424;SDS011;17139;52.140;11.636;2023-08-31T10:27:38;0.98;;;0.98;;
9424;SDS011;17139;52.140;11.636;2023-08-31T10:30:14;0.93;;;0.93;;
9424;SDS011;17139;52.140;11.636;2023-08-31T10:32:43;0.95;;;0.95;;
9424;SDS011;17139;52.140;11.636;2023-08-31T10:35:10;1.48;;;1.38;;
9424;SDS011;17139;52.140;11.636;2023-08-31T10:37:39;1.50;;;1.40;;
9424;SDS011;17139;52.140;11.636;2023-08-31T10:40:07;1.48;;;1.40;;
9424;SDS011;17139;52.140;11.636;2023-08-31T10:42:42;1.45;;;1.42;;
9424;SDS011;17139;52.140;11.636;2023-08-31T10:45:10;1.20;;;1.20;;
9424;SDS011;17139;52.140;11.636;2023-08-31T10:47:39;2.25;;;1.27;;
9424;SDS011;17139;52.140;11.636;2023-08-31T10:50:18;1.48;;;1.48;;
9424;SDS011;17139;52.140;11.636;2023-08-31T10:52:48;1.45;;;1.45;;
9424;SDS011;17139;52.140;11.636;2023-08-31T10:55:15;1.20;;;1.20;;
9424;SDS011;17139;52.140;11.636;2023-08-31T10:57:42;1.52;;;1.42;;
9424;SDS011;17139;52.140;11.636;2023-08-31T11:00:11;1.38;;;1.20;;
9424;SDS011;17139;52.140;11.636;2023-08-31T11:02:41;3.35;;;1.30;;
9424;SDS011;17139;52.140;11.636;2023-08-31T11:05:09;1.30;;;1.30;;
9424;SDS011;17139;52.140;11.636;2023-08-31T11:07:39;1.75;;;1.25;;
9424;SDS011;17139;52.140;11.636;2023-08-31T11:10:07;2.15;;;1.40;;
9424;SDS011;17139;52.140;11.636;2023-08-31T11:12:36;1.20;;;1.20;;
9424;SDS011;17139;52.140;11.636;2023-08-31T11:15:04;1.20;;;1.20;;
9424;SDS011;17139;52.140;11.636;2023-08-31T11:17:32;0.80;;;0.80;;
9424;SDS011;17139;52.140;11.636;2023-08-31T11:19:59;0.98;;;0.98;;
9424;SDS011;17139;52.140;11.636;2023-08-31T11:22:30;2.10;;;1.00;;
9424;SDS011;17139;52.140;11.636;2023-08-31T11:25:11;1.73;;;1.08;;
9424;SDS011;17139;52.140;11.636;2023-08-31T11:27:40;0.85;;;0.85;;
9424;SDS011;17139;52.140;11.636;2023-08-31T11:30:14;1.20;;;1.20;;
9424;SDS011;17139;52.140;11.636;2023-08-31T11:32:45;2.05;;;0.80;;
9424;SDS011;17139;52.140;11.636;2023-08-31T11:35:13;1.17;;;1.10;;
9424;SDS011;17139;52.140;11.636;2023-08-31T11:37:41;1.52;;;1.42;;
9424;SDS011;17139;52.140;11.636;2023-08-31T11:40:11;3.55;;;1.10;;
9424;SDS011;17139;52.140;11.636;2023-08-31T11:42:40;2.83;;;1.27;;
9424;SDS011;17139;52.140;11.636;2023-08-31T11:45:08;1.02;;;1.02;;
9424;SDS011;17139;52.140;11.636;2023-08-31T11:47:37;1.63;;;1.02;;
9424;SDS011;17139;52.140;11.636;2023-08-31T11:50:06;1.02;;;1.02;;
9424;SDS011;17139;52.140;11.636;2023-08-31T11:52:34;1.00;;;1.00;;
9424;SDS011;17139;52.140;11.636;2023-08-31T11:55:01;1.08;;;1.08;;
9424;SDS011;17139;52.140;11.636;2023-08-31T11:57:30;2.13;;;1.30;;
9424;SDS011;17139;52.140;11.636;2023-08-31T11:59:56;0.85;;;0.85;;
9424;SDS011;17139;52.140;11.636;2023-08-31T12:02:24;1.65;;;1.15;;
9424;SDS011;17139;52.140;11.636;2023-08-31T12:04:50;1.23;;;1.23;;
9424;SDS011;17139;52.140;11.636;2023-08-31T12:07:18;1.17;;;1.17;;
9424;SDS011;17139;52.140;11.636;2023-08-31T12:09:45;2.75;;;1.65;;
9424;SDS011;17139;52.140;11.636;2023-08-31T12:12:13;1.75;;;0.95;;
9424;SDS011;17139;52.140;11.636;2023-08-31T12:14:42;1.98;;;1.02;;
9424;SDS011;17139;52.140;11.636;2023-08-31T12:17:10;1.90;;;1.13;;
9424;SDS011;17139;52.140;11.636;2023-08-31T12:19:37;0.70;;;0.70;;
9424;SDS011;17139;52.140;11.636;2023-08-31T12:22:05;4.68;;;0.75;;
9424;SDS011;17139;52.140;11.636;2023-08-31T12:24:37;0.90;;;0.90;;
9424;SDS011;17139;52.140;11.636;2023-08-31T12:27:05;4.25;;;1.02;;
9424;SDS011;17139;52.140;11.636;2023-08-31T12:29:32;0.60;;;0.60;;
9424;SDS011;17139;52.140;11.636;2023-08-31T12:32:01;0.60;;;0.60;;
9424;SDS011;17139;52.140;11.636;2023-08-31T12:34:28;1.50;;;0.90;;
9424;SDS011;17139;52.140;11.636;2023-08-31T12:36:56;0.50;;;0.50;;
9424;SDS011;17139;52.140;11.636;2023-08-31T12:39:26;1.10;;;0.80;;
9424;SDS011;17139;52.140;11.636;2023-08-31T12:41:54;0.82;;;0.70;;
9424;SDS011;17139;52.140;11.636;2023-08-31T12:44:21;0.80;;;0.80;;
9424;SDS011;17139;52.140;11.636;2023-08-31T12:46:50;0.63;;;0.63;;
9424;SDS011;17139;52.140;11.636;2023-08-31T12:49:19;0.65;;;0.65;;
9424;SDS011;17139;52.140;11.636;2023-08-31T12:51:46;0.73;;;0.73;;
9424;SDS011;17139;52.140;11.636;2023-08-31T12:54:15;2.08;;;0.80;;
9424;SDS011;17139;52.140;11.636;2023-08-31T12:56:42;0.90;;;0.90;;
9424;SDS011;17139;52.140;11.636;2023-08-31T12:59:09;1.00;;;1.00;;
9424;SDS011;17139;52.140;11.636;2023-08-31T13:01:36;0.98;;;0.98;;
9424;SDS011;17139;52.140;11.636;2023-08-31T13:04:03;0.95;;;0.95;;
9424;SDS011;17139;52.140;11.636;2023-08-31T13:06:32;1.42;;;1.33;;
9424;SDS011;17139;52.140;11.636;2023-08-31T13:08:59;1.10;;;1.10;;
9424;SDS011;17139;52.140;11.636;2023-08-31T13:11:28;1.38;;;1.27;;
9424;SDS011;17139;52.140;11.636;2023-08-31T13:13:55;1.13;;;1.13;;
9424;SDS011;17139;52.140;11.636;2023-08-31T13:16:22;1.13;;;1.10;;
9424;SDS011;17139;52.140;11.636;2023-08-31T13:18:49;1.23;;;1.13;;
9424;SDS011;17139;52.140;11.636;2023-08-31T13:21:16;0.95;;;0.95;;
9424;SDS011;17139;52.140;11.636;2023-08-31T13:23:45;1.25;;;1.15;;
9424;SDS011;17139;52.140;11.636;2023-08-31T13:26:12;1.08;;;1.00;;
9424;SDS011;17139;52.140;11.636;2023-08-31T13:28:39;1.63;;;0.68;;
9424;SDS011;17139;52.140;11.636;2023-08-31T13:31:06;0.82;;;0.82;;
9424;SDS011;17139;52.140;11.636;2023-08-31T13:33:33;1.08;;;0.90;;
9424;SDS011;17139;52.140;11.636;2023-08-31T13:36:00;0.70;;;0.70;;
9424;SDS011;17139;52.140;11.636;2023-08-31T13:38:28;0.80;;;0.80;;
9424;SDS011;17139;52.140;11.636;2023-08-31T13:40:57;0.60;;;0.60;;
9424;SDS011;17139;52.140;11.636;2023-08-31T13:43:24;0.88;;;0.88;;
9424;SDS011;17139;52.140;11.636;2023-08-31T13:45:51;0.73;;;0.73;;
9424;SDS011;17139;52.140;11.636;2023-08-31T13:48:18;2.28;;;0.70;;
9424;SDS011;17139;52.140;11.636;2023-08-31T13:50:47;0.70;;;0.70;;
9424;SDS011;17139;52.140;11.636;2023-08-31T13:53:14;0.90;;;0.90;;
9424;SDS011;17139;52.140;11.636;2023-08-31T13:55:41;0.90;;;0.90;;
9424;SDS011;17139;52.140;11.636;2023-08-31T13:58:10;1.23;;;0.95;;
9424;SDS011;17139;52.140;11.636;2023-08-31T14:00:37;0.90;;;0.90;;
9424;SDS011;17139;52.140;11.636;2023-08-31T14:03:04;1.45;;;1.02;;
9424;SDS011;17139;52.140;11.636;2023-08-31T14:05:31;1.67;;;1.10;;
9424;SDS011;17139;52.140;11.636;2023-08-31T14:07:59;0.80;;;0.80;;
9424;SDS011;17139;52.140;11.636;2023-08-31T14:10:29;1.10;;;1.10;;
9424;SDS011;17139;52.140;11.636;2023-08-31T14:12:57;1.60;;;1.33;;
9424;SDS011;17139;52.140;11.636;2023-08-31T14:15:26;0.98;;;0.93;;
9424;SDS011;17139;52.140;11.636;2023-08-31T14:17:53;0.95;;;0.95;;
9424;SDS011;17139;52.140;11.636;2023-08-31T14:20:20;1.95;;;1.00;;
9424;SDS011;17139;52.140;11.636;2023-08-31T14:22:47;0.93;;;0.93;;
9424;SDS011;17139;52.140;11.636;2023-08-31T14:25:15;0.70;;;0.70;;
9424;SDS011;17139;52.140;11.636;2023-08-31T14:27:42;0.90;;;0.90;;
9424;SDS011;17139;52.140;11.636;2023-08-31T14:30:10;0.80;;;0.80;;
9424;SDS011;17139;52.140;11.636;2023-08-31T14:32:38;0.63;;;0.63;;
9424;SDS011;17139;52.140;11.636;2023-08-31T14:35:06;0.75;;;0.75;;
9424;SDS011;17139;52.140;11.636;2023-08-31T14:37:33;3.00;;;0.68;;
9424;SDS011;17139;52.140;11.636;2023-08-31T14:40:00;0.73;;;0.73;;
9424;SDS011;17139;52.140;11.636;2023-08-31T14:42:28;0.85;;;0.85;;
9424;SDS011;17139;52.140;11.636;2023-08-31T14:44:54;2.38;;;0.90;;
9424;SDS011;17139;52.140;11.636;2023-08-31T14:47:21;0.73;;;0.73;;
9424;SDS011;17139;52.140;11.636;2023-08-31T14:49:49;0.60;;;0.60;;
9424;SDS011;17139;52.140;11.636;2023-08-31T14:52:16;0.73;;;0.73;;